Home   Weather   Greece   Alexandroupoli   Past weeks
Flag for Greece

Past Weather in Alexandroupoli, Greece — Yesterday and Last 2 Weeks

Currently: 82 °F. Sunny. (Weather station: Alexandroupoli Airport, Greece). See more current weather

Past Weather in Alexandroupoli — Graph

°F

Alexandroupoli Temperature Yesterday

Maximum temperature yesterday: 82 °F (at 12:50 pm)
Minimum temperature yesterday: 61 °F (at 5:50 am)
Average temperature yesterday: 74 °F

High & Low Weather Summary for the Past Weeks

 TemperatureHumidityPressure
High93 °F (Jun 3, 12:50 pm)94% (Jun 2, 6:50 am)30.04 "Hg (Jun 2, 6:50 am)
Low61 °F (Jun 15, 5:50 am)26% (Jun 8, 2:50 pm)29.68 "Hg (Jun 14, 12:50 pm)
Average79 °F60%29.88 "Hg
* Reported Jun 1 10:20 am — Jun 16 10:20 am, Alexandroupoli. Weather by CustomWeather, © 2024

Note: Actual official high and low records may vary slightly from our data, if they occured in-between our weather recording intervals... More about our weather records

Alexandroupoli Weather History for the Previous 24 Hours

Scroll right to see more
 ConditionsComfort  
Time TempWeatherWind HumidityBarometerVisibility
10:20 am
Sun, Jun 16
82 °FSunny.5 mph48%29.86 "Hg10 mi
9:50 am81 °FSunny.5 mph54%29.86 "Hg10 mi
9:20 am77 °FSunny.No wind57%29.86 "Hg10 mi
7:50 am70 °FSunny.No wind69%29.86 "Hg10 mi
7:20 am68 °FSunny.No wind78%29.86 "Hg10 mi
6:50 am64 °FSunny.No wind83%29.86 "Hg10 mi
6:20 am63 °FSunny.No wind83%29.83 "Hg10 mi
5:50 am63 °FSunny.3 mph83%29.83 "Hg10 mi
5:20 am63 °FClear.No wind83%29.83 "Hg10 mi
4:50 am64 °FClear.No wind83%29.83 "Hg10 mi
3:50 am66 °FClear.No wind83%29.83 "Hg10 mi
2:50 am68 °FClear.No wind78%29.86 "Hg10 mi
1:50 am68 °FClear.No wind73%29.86 "Hg10 mi
12:50 am68 °FClear.6 mph73%29.86 "Hg10 mi
11:50 pm
Sat, Jun 15
68 °FClear.3 mph78%29.86 "Hg10 mi
11:20 pm70 °FClear.No wind73%29.83 "Hg10 mi
10:50 pm70 °FClear.No wind73%29.83 "Hg10 mi
10:20 pm72 °FClear.No wind69%29.83 "Hg10 mi
9:50 pm73 °FClear.No wind65%29.83 "Hg10 mi
9:20 pm75 °FClear.3 mph65%29.83 "Hg10 mi
8:50 pm77 °FClear.5 mph61%29.83 "Hg10 mi
8:20 pm77 °FSunny.5 mph57%29.83 "Hg10 mi
7:50 pm77 °FSunny.6 mph57%29.83 "Hg10 mi
7:20 pm79 °FSunny.9 mph54%29.83 "Hg10 mi
6:50 pm79 °FSunny.10 mph54%29.83 "Hg10 mi
6:20 pm81 °FSunny.10 mph45%29.83 "Hg10 mi
5:50 pm81 °FSunny.13 mph45%29.83 "Hg10 mi
5:20 pm81 °FPassing clouds.10 mph48%29.83 "HgN/A
3:50 pm81 °FPassing clouds.10 mph45%29.86 "HgN/A
3:20 pm81 °FPassing clouds.10 mph45%29.86 "HgN/A
2:50 pm81 °FPassing clouds.12 mph45%29.86 "HgN/A
1:50 pm81 °FPassing clouds.12 mph39%29.89 "HgN/A
1:20 pm81 °FPassing clouds.12 mph42%29.89 "HgN/A
12:50 pm82 °FPassing clouds.9 mph35%29.89 "HgN/A
12:20 pm81 °FPassing clouds.14 mph37%29.89 "HgN/A
11:20 am79 °FPassing clouds.16 mph48%29.89 "HgN/A
Weather by CustomWeather, © 2024

See weather overview